Gorham, Illinois
Current Conditions -  °F | °C
As of 4:22 PM on Sunday 23 Nov 2014 (Local Time) from KMDH Reporting Station
Moderate Rain Moderate Rain  
Wind Chill: 53°   Ceiling: 2700
Heat Index: 53°   Visibility: 1.7mi
Dew Point: 52°   Wind: 3mph
Humidity: 96%   Direction: 90°E
Pressure: 29.34"   Gusts: NA
Location:  37.72°N, 89.49°W
Report Text: KMDH 232222Z AUTO 09003KT 1 3/4SM RA BR BKN027 OVC035 12/11 A2934 RMK AO2 P0011 T01170111
Loading
Personal Weather Stations






























Interactive Weather Map New forecast layout! Learn more

10-Day Weather Forecast

Advertisements
Track Severe Weather on mobile